createdAt,value
2018-08-13T00:01:00.270Z,0.90
2018-08-13T00:03:28.037Z,1.10
2018-08-13T00:05:56.332Z,1.10
2018-08-13T00:08:24.357Z,0.90
2018-08-13T00:10:52.533Z,1.00
2018-08-13T00:13:20.295Z,1.00
2018-08-13T00:15:48.018Z,1.00
2018-08-13T00:18:16.041Z,1.00
2018-08-13T00:20:43.805Z,1.00
2018-08-13T00:23:11.560Z,1.00
2018-08-13T00:25:39.298Z,1.03
2018-08-13T00:28:08.431Z,1.00
2018-08-13T00:30:36.513Z,0.90
2018-08-13T00:33:05.137Z,1.00
2018-08-13T00:35:33.187Z,0.90
2018-08-13T00:38:01.391Z,0.93
2018-08-13T00:40:29.095Z,1.00
2018-08-13T00:42:58.194Z,0.90
2018-08-13T00:45:25.893Z,1.20
2018-08-13T00:47:53.619Z,1.10
2018-08-13T00:50:21.430Z,0.90
2018-08-13T00:52:49.405Z,0.90
2018-08-13T00:55:17.108Z,1.07
2018-08-13T00:57:45.426Z,1.00
2018-08-13T01:00:15.511Z,1.00
2018-08-13T01:02:44.308Z,0.80
2018-08-13T01:05:12.416Z,0.93
2018-08-13T01:07:40.125Z,1.10
2018-08-13T01:10:12.289Z,1.00
2018-08-13T01:12:41.013Z,1.10
2018-08-13T01:15:11.173Z,1.00
2018-08-13T01:17:40.066Z,0.97
2018-08-13T01:20:09.872Z,0.90
2018-08-13T01:22:38.116Z,0.90
2018-08-13T01:25:07.381Z,1.03
2018-08-13T01:27:35.421Z,1.10
2018-08-13T01:30:03.265Z,1.20
2018-08-13T01:32:31.559Z,1.00
2018-08-13T01:34:59.702Z,1.10
2018-08-13T01:37:28.006Z,1.00
2018-08-13T01:39:56.476Z,1.00
2018-08-13T01:42:24.700Z,0.90
2018-08-13T01:44:52.477Z,1.00
2018-08-13T01:47:20.214Z,0.97
2018-08-13T01:49:47.991Z,0.90
2018-08-13T01:52:16.720Z,0.80
2018-08-13T01:54:44.425Z,1.10
2018-08-13T01:57:12.162Z,1.00
2018-08-13T01:59:40.079Z,0.90
2018-08-13T02:02:08.085Z,0.90
2018-08-13T02:04:35.818Z,0.90
2018-08-13T02:07:03.898Z,1.07
2018-08-13T02:09:34.196Z,1.00
2018-08-13T02:12:02.878Z,1.00
2018-08-13T02:14:31.078Z,1.00
2018-08-13T02:16:59.143Z,1.10
2018-08-13T02:19:27.478Z,0.97
2018-08-13T02:21:56.187Z,0.90
2018-08-13T02:24:24.020Z,1.20
2018-08-13T02:26:52.329Z,1.07
2018-08-13T02:29:20.706Z,1.00
2018-08-13T02:31:49.233Z,1.10
2018-08-13T02:34:16.942Z,0.90
2018-08-13T02:36:44.662Z,0.90
2018-08-13T02:39:12.594Z,1.00
2018-08-13T02:41:40.906Z,0.80
2018-08-13T02:44:08.706Z,1.10
2018-08-13T02:46:36.750Z,0.90
2018-08-13T02:49:04.573Z,1.00
2018-08-13T02:51:33.533Z,1.00
2018-08-13T02:54:01.726Z,1.00
2018-08-13T02:56:29.418Z,0.90
2018-08-13T02:58:57.327Z,1.00
2018-08-13T03:04:06.592Z,0.90
2018-08-13T03:06:34.334Z,1.00
2018-08-13T03:09:02.002Z,1.00
2018-08-13T03:11:29.745Z,0.90
2018-08-13T03:13:57.975Z,1.17
2018-08-13T03:16:25.969Z,1.10
2018-08-13T03:18:53.650Z,1.00
2018-08-13T03:21:21.397Z,1.00
2018-08-13T03:23:49.100Z,0.90
2018-08-13T03:26:16.756Z,0.90
2018-08-13T03:28:44.479Z,1.20
2018-08-13T03:31:12.441Z,1.10
2018-08-13T03:33:40.242Z,1.20
2018-08-13T03:36:08.138Z,0.90
2018-08-13T03:38:35.829Z,0.90
2018-08-13T03:41:03.558Z,1.10
2018-08-13T03:43:31.298Z,0.90
2018-08-13T03:45:59.908Z,1.00
2018-08-13T03:48:27.883Z,0.93
2018-08-13T03:50:56.017Z,0.90
2018-08-13T03:53:23.736Z,0.80
2018-08-13T03:55:51.401Z,0.90
2018-08-13T03:58:19.146Z,0.90
2018-08-13T04:00:47.103Z,1.00
2018-08-13T04:03:14.849Z,1.00
2018-08-13T04:05:42.551Z,1.10
2018-08-13T04:08:10.485Z,0.90
2018-08-13T04:10:38.465Z,1.00
2018-08-13T04:13:06.789Z,0.90
2018-08-13T04:15:34.497Z,0.90
2018-08-13T04:18:02.602Z,0.90
2018-08-13T04:20:30.672Z,1.10
2018-08-13T04:22:58.387Z,1.00
2018-08-13T04:25:26.105Z,0.93
2018-08-13T04:27:54.099Z,0.90
2018-08-13T04:30:22.263Z,1.20
2018-08-13T04:32:50.119Z,1.00
2018-08-13T04:35:18.070Z,1.07
2018-08-13T04:37:46.904Z,0.90
2018-08-13T04:40:15.737Z,1.03
2018-08-13T04:42:44.735Z,1.00
2018-08-13T04:45:12.872Z,0.90
2018-08-13T04:47:43.585Z,1.00
2018-08-13T04:50:11.267Z,1.00
2018-08-13T04:52:39.043Z,0.90
2018-08-13T04:55:08.453Z,0.90
2018-08-13T04:57:36.121Z,0.93
2018-08-13T05:00:04.716Z,0.93
2018-08-13T05:02:32.483Z,0.90
2018-08-13T05:05:00.184Z,0.90
2018-08-13T05:07:28.277Z,0.80
2018-08-13T05:09:55.939Z,0.90
2018-08-13T05:12:23.639Z,0.83
2018-08-13T05:14:51.406Z,0.90
2018-08-13T05:17:19.629Z,1.07
2018-08-13T05:19:47.273Z,0.90
2018-08-13T05:22:15.380Z,0.90
2018-08-13T05:24:43.118Z,1.00
2018-08-13T05:27:10.814Z,1.10
2018-08-13T05:29:38.516Z,1.00
2018-08-13T05:32:06.996Z,1.00
2018-08-13T05:34:34.681Z,0.80
2018-08-13T05:37:02.377Z,1.07
2018-08-13T05:39:30.099Z,0.90
2018-08-13T05:41:57.836Z,0.90
2018-08-13T05:44:25.554Z,1.20
2018-08-13T05:46:53.321Z,0.90
2018-08-13T05:49:21.096Z,0.87
2018-08-13T05:51:49.228Z,0.90
2018-08-13T05:54:16.967Z,1.00
2018-08-13T05:56:44.632Z,1.00
2018-08-13T05:59:12.880Z,1.10
2018-08-13T06:01:40.792Z,0.90
2018-08-13T06:04:08.692Z,0.90
2018-08-13T06:06:36.384Z,0.97
2018-08-13T06:09:08.033Z,0.90
2018-08-13T06:11:35.720Z,1.00
2018-08-13T06:14:03.414Z,0.90
2018-08-13T06:16:31.094Z,1.10
2018-08-13T06:18:59.038Z,1.10
2018-08-13T06:21:26.750Z,1.17
2018-08-13T06:23:54.380Z,1.10
2018-08-13T06:26:22.327Z,1.00
2018-08-13T06:28:50.031Z,0.90
2018-08-13T06:31:17.721Z,0.90
2018-08-13T06:33:45.662Z,1.10
2018-08-13T06:36:13.287Z,1.10
2018-08-13T06:38:40.949Z,1.07
2018-08-13T06:41:08.574Z,0.97
2018-08-13T06:43:36.349Z,1.10
2018-08-13T06:46:04.316Z,0.90
2018-08-13T06:48:31.956Z,1.10
2018-08-13T06:50:59.668Z,0.93
2018-08-13T06:53:27.631Z,1.13
2018-08-13T06:55:55.808Z,1.10
2018-08-13T06:58:23.490Z,1.00
2018-08-13T07:00:51.449Z,1.03
2018-08-13T07:03:19.474Z,1.00
2018-08-13T07:05:47.717Z,1.00
2018-08-13T07:08:15.369Z,1.10
2018-08-13T07:10:43.312Z,0.90
2018-08-13T07:13:11.036Z,1.00
2018-08-13T07:15:39.325Z,1.30
2018-08-13T07:18:06.967Z,1.00
2018-08-13T07:20:34.725Z,1.20
2018-08-13T07:23:02.410Z,1.20
2018-08-13T07:25:30.343Z,1.10
2018-08-13T07:27:58.057Z,1.10
2018-08-13T07:30:25.668Z,1.00
2018-08-13T07:32:53.384Z,1.10
2018-08-13T07:35:21.041Z,1.10
2018-08-13T07:37:48.753Z,0.90
2018-08-13T07:40:17.083Z,1.20
2018-08-13T07:42:45.377Z,1.00
2018-08-13T07:45:13.290Z,1.17
2018-08-13T07:47:41.093Z,0.97
2018-08-13T07:50:10.351Z,1.10
2018-08-13T07:52:38.011Z,1.00
2018-08-13T07:55:06.041Z,1.20
2018-08-13T07:57:33.677Z,1.00
2018-08-13T08:00:01.714Z,1.00
2018-08-13T08:02:29.592Z,1.10
2018-08-13T08:04:57.831Z,0.90
2018-08-13T08:07:25.518Z,1.20
2018-08-13T08:09:53.737Z,1.13
2018-08-13T08:12:21.400Z,1.20
2018-08-13T08:14:49.242Z,1.00
2018-08-13T08:17:16.906Z,1.03
2018-08-13T08:19:44.613Z,1.00
2018-08-13T08:22:12.666Z,1.00
2018-08-13T08:24:40.326Z,1.13
2018-08-13T08:27:08.383Z,1.10
2018-08-13T08:29:36.170Z,1.00
2018-08-13T08:32:05.238Z,1.00
2018-08-13T08:34:32.862Z,0.97
2018-08-13T08:37:00.560Z,1.10
2018-08-13T08:39:28.189Z,1.00
2018-08-13T08:41:55.878Z,1.10
2018-08-13T08:44:23.601Z,1.10
2018-08-13T08:46:51.514Z,1.00
2018-08-13T08:49:19.166Z,0.93
2018-08-13T08:51:47.144Z,1.00
2018-08-13T08:54:15.512Z,1.10
2018-08-13T08:56:44.337Z,0.90
2018-08-13T08:59:12.308Z,1.13
2018-08-13T09:01:39.976Z,1.10
2018-08-13T09:04:08.648Z,0.90
2018-08-13T09:06:36.766Z,0.90
2018-08-13T09:09:07.775Z,1.20
2018-08-13T09:11:35.445Z,0.90
2018-08-13T09:14:03.737Z,1.00
2018-08-13T09:16:31.684Z,1.03
2018-08-13T09:19:10.690Z,1.00
2018-08-13T09:21:38.630Z,1.10
2018-08-13T09:24:17.861Z,1.00
2018-08-13T09:26:56.616Z,1.00
2018-08-13T09:29:35.564Z,0.93
2018-08-13T09:32:26.713Z,1.20
2018-08-13T09:35:11.669Z,1.07
2018-08-13T09:37:39.345Z,1.00
2018-08-13T09:40:07.604Z,1.00
2018-08-13T09:42:35.562Z,1.20
2018-08-13T09:45:03.545Z,1.07
2018-08-13T09:47:31.229Z,0.90
2018-08-13T09:49:58.902Z,0.90
2018-08-13T09:52:26.555Z,1.13
2018-08-13T09:54:54.514Z,0.90
2018-08-13T09:57:22.243Z,1.00
2018-08-13T09:59:50.152Z,1.13
2018-08-13T10:02:18.150Z,1.23
2018-08-13T10:04:46.405Z,1.20
2018-08-13T10:07:15.122Z,1.20
2018-08-13T10:09:42.769Z,1.10
2018-08-13T10:12:10.452Z,1.07
2018-08-13T10:14:38.383Z,1.00
2018-08-13T10:17:06.011Z,1.00
2018-08-13T10:19:33.914Z,1.20
2018-08-13T10:22:01.677Z,1.20
2018-08-13T10:24:29.414Z,1.03
2018-08-13T10:26:57.169Z,1.13
2018-08-13T10:29:24.878Z,1.27
2018-08-13T10:31:52.535Z,1.10
2018-08-13T10:34:20.153Z,0.97
2018-08-13T10:36:48.219Z,0.93
2018-08-13T10:39:15.888Z,1.23
2018-08-13T10:41:43.791Z,0.90
2018-08-13T10:44:11.705Z,1.00
2018-08-13T10:46:39.358Z,1.13
2018-08-13T10:49:06.993Z,1.17
2018-08-13T10:51:34.641Z,0.90
2018-08-13T10:54:02.280Z,1.10
2018-08-13T10:56:30.209Z,1.00
2018-08-13T10:58:58.183Z,1.20
2018-08-13T11:01:26.111Z,1.20
2018-08-13T11:03:54.410Z,0.93
2018-08-13T11:06:22.067Z,1.17
2018-08-13T11:08:50.035Z,0.90
2018-08-13T11:11:17.737Z,1.10
2018-08-13T11:13:45.385Z,0.90
2018-08-13T11:16:13.364Z,1.10
2018-08-13T11:18:40.998Z,1.00
2018-08-13T11:21:09.137Z,1.03
2018-08-13T11:23:36.792Z,1.10
2018-08-13T11:26:04.792Z,0.97
2018-08-13T11:28:33.243Z,1.10
2018-08-13T11:31:00.933Z,1.03
2018-08-13T11:33:29.253Z,0.90
2018-08-13T11:35:57.166Z,1.10
2018-08-13T11:38:24.787Z,1.13
2018-08-13T11:40:52.729Z,1.20
2018-08-13T11:43:20.378Z,1.10
2018-08-13T11:45:48.042Z,1.10
2018-08-13T11:48:16.049Z,1.10
2018-08-13T11:50:43.685Z,1.10
2018-08-13T11:53:11.739Z,1.40
2018-08-13T11:55:39.425Z,1.07
2018-08-13T11:58:07.107Z,1.10
2018-08-13T12:00:34.730Z,0.90
2018-08-13T12:03:02.433Z,0.90
2018-08-13T12:05:30.263Z,1.20
2018-08-13T12:07:57.963Z,1.17
2018-08-13T12:10:25.584Z,1.17
2018-08-13T12:12:53.558Z,0.97
2018-08-13T12:15:21.192Z,1.17
2018-08-13T12:17:48.849Z,1.37
2018-08-13T12:20:18.361Z,1.20
2018-08-13T12:22:46.642Z,1.10
2018-08-13T12:25:21.353Z,1.20
2018-08-13T12:27:49.130Z,1.10
2018-08-13T12:30:17.062Z,1.07
2018-08-13T12:32:44.783Z,1.20
2018-08-13T12:35:12.404Z,1.10
2018-08-13T12:37:40.009Z,1.20
2018-08-13T12:40:09.134Z,1.40
2018-08-13T12:42:37.323Z,1.00
2018-08-13T12:45:07.540Z,1.20
2018-08-13T12:47:35.201Z,1.00
2018-08-13T12:50:02.902Z,1.20
2018-08-13T12:52:30.551Z,1.00
2018-08-13T12:54:58.199Z,1.00
2018-08-13T12:57:26.244Z,1.10
2018-08-13T12:59:53.925Z,1.03
2018-08-13T13:02:21.595Z,1.20
2018-08-13T13:04:49.293Z,1.07
2018-08-13T13:07:17.583Z,1.10
2018-08-13T13:09:45.216Z,1.30
2018-08-13T13:12:13.112Z,1.10
2018-08-13T13:14:40.845Z,1.60
2018-08-13T13:17:08.749Z,1.00
2018-08-13T13:19:36.402Z,1.10
2018-08-13T13:22:04.102Z,1.10
2018-08-13T13:24:31.774Z,1.10
2018-08-13T13:26:59.786Z,1.20
2018-08-13T13:29:27.805Z,1.10
2018-08-13T13:31:55.472Z,1.20
2018-08-13T13:34:23.149Z,1.20
2018-08-13T13:36:50.829Z,1.20
2018-08-13T13:39:18.857Z,1.23
2018-08-13T13:41:46.732Z,1.30
2018-08-13T13:44:14.943Z,1.20
2018-08-13T13:46:42.634Z,1.23
2018-08-13T13:49:10.582Z,1.27
2018-08-13T13:51:38.377Z,1.17
2018-08-13T13:54:06.415Z,1.10
2018-08-13T13:56:34.416Z,1.50
2018-08-13T13:59:02.054Z,1.20
2018-08-13T14:01:30.092Z,1.07
2018-08-13T14:03:58.145Z,1.20
2018-08-13T14:06:25.810Z,1.37
2018-08-13T14:08:53.426Z,1.30
2018-08-13T14:11:21.414Z,1.40
2018-08-13T14:13:49.139Z,1.17
2018-08-13T14:16:16.877Z,1.20
2018-08-13T14:18:44.819Z,1.23
2018-08-13T14:21:12.441Z,1.27
2018-08-13T14:23:40.404Z,1.27
2018-08-13T14:26:08.033Z,1.13
2018-08-13T14:28:35.835Z,1.27
2018-08-13T14:31:04.062Z,1.20
2018-08-13T14:33:32.073Z,1.10
2018-08-13T14:35:59.774Z,1.30
2018-08-13T14:38:27.418Z,1.10
2018-08-13T14:40:55.369Z,1.00
2018-08-13T14:43:23.342Z,1.30
2018-08-13T14:45:51.300Z,1.30
2018-08-13T14:48:18.933Z,1.40
2018-08-13T14:50:46.604Z,1.10
2018-08-13T14:53:14.926Z,1.10
2018-08-13T14:55:42.894Z,1.20
2018-08-13T14:58:12.757Z,1.40
2018-08-13T15:00:40.862Z,1.37
2018-08-13T15:03:10.430Z,1.10
2018-08-13T15:05:38.721Z,1.37
2018-08-13T15:08:06.655Z,1.20
2018-08-13T15:10:34.651Z,1.27
2018-08-13T15:13:02.885Z,1.20
2018-08-13T15:15:31.028Z,1.30
2018-08-13T15:17:58.755Z,1.10
2018-08-13T15:20:31.280Z,1.30
2018-08-13T15:22:58.984Z,1.20
2018-08-13T15:25:27.305Z,1.50
2018-08-13T15:27:55.130Z,1.40
2018-08-13T15:30:24.028Z,1.13
2018-08-13T15:32:52.463Z,1.23
2018-08-13T15:35:20.424Z,1.20
2018-08-13T15:37:48.422Z,1.27
2018-08-13T15:40:16.061Z,1.00
2018-08-13T15:42:44.336Z,1.40
2018-08-13T15:45:16.514Z,1.30
2018-08-13T15:47:44.350Z,1.13
2018-08-13T15:50:13.617Z,1.30
2018-08-13T15:52:41.481Z,1.37
2018-08-13T15:55:09.216Z,1.57
2018-08-13T15:57:36.951Z,1.10
2018-08-13T16:00:06.269Z,1.10
2018-08-13T16:02:33.910Z,1.33
2018-08-13T16:05:02.118Z,1.20
2018-08-13T16:07:29.771Z,1.23
2018-08-13T16:09:57.649Z,1.30
2018-08-13T16:12:25.964Z,1.53
2018-08-13T16:14:53.976Z,1.40
2018-08-13T16:17:21.577Z,1.43
2018-08-13T16:19:49.246Z,1.20
2018-08-13T16:22:17.089Z,1.10
2018-08-13T16:24:44.705Z,1.27
2018-08-13T16:27:12.391Z,1.10
2018-08-13T16:29:40.355Z,1.30
2018-08-13T16:32:08.413Z,1.40
2018-08-13T16:34:36.095Z,1.17
2018-08-13T16:37:04.601Z,1.40
2018-08-13T16:39:32.301Z,1.30
2018-08-13T16:41:59.997Z,1.90
2018-08-13T16:44:28.244Z,1.60
2018-08-13T16:46:55.878Z,1.30
2018-08-13T16:49:23.885Z,1.60
2018-08-13T16:51:51.986Z,1.40
2018-08-13T16:54:19.920Z,1.10
2018-08-13T16:56:47.661Z,1.50
2018-08-13T16:59:15.294Z,1.37
2018-08-13T17:01:44.001Z,1.20
2018-08-13T17:04:11.772Z,1.23
2018-08-13T17:06:39.848Z,1.37
2018-08-13T17:09:09.135Z,1.57
2018-08-13T17:11:37.676Z,1.40
2018-08-13T17:14:09.735Z,1.20
2018-08-13T17:16:39.405Z,1.30
2018-08-13T17:19:07.017Z,1.20
2018-08-13T17:21:34.672Z,1.00
2018-08-13T17:24:02.921Z,1.47
2018-08-13T17:26:30.971Z,1.30
2018-08-13T17:28:58.862Z,1.50
2018-08-13T17:31:26.897Z,1.37
2018-08-13T17:33:55.247Z,1.10
2018-08-13T17:36:22.944Z,1.30
2018-08-13T17:38:50.576Z,1.30
2018-08-13T17:41:18.245Z,1.20
2018-08-13T17:43:45.902Z,1.10
2018-08-13T17:46:13.802Z,1.10
2018-08-13T17:48:41.448Z,1.40
2018-08-13T17:51:09.405Z,1.50
2018-08-13T17:53:37.085Z,1.20
2018-08-13T17:56:05.120Z,1.50
2018-08-13T17:58:32.836Z,1.20
2018-08-13T18:01:00.477Z,1.70
2018-08-13T18:03:28.114Z,1.50
2018-08-13T18:05:56.141Z,1.40
2018-08-13T18:08:23.871Z,1.20
2018-08-13T18:10:51.782Z,1.40
2018-08-13T18:13:19.419Z,1.93
2018-08-13T18:15:47.093Z,1.43
2018-08-13T18:18:14.758Z,1.80
2018-08-13T18:20:42.408Z,1.30
2018-08-13T18:23:10.056Z,1.57
2018-08-13T18:25:38.438Z,1.13
2018-08-13T18:28:06.315Z,1.13
2018-08-13T18:30:34.010Z,1.77
2018-08-13T18:33:01.725Z,1.53
2018-08-13T18:35:29.418Z,1.30
2018-08-13T18:37:57.076Z,1.30
2018-08-13T18:40:28.192Z,1.37
2018-08-13T18:42:56.470Z,1.60
2018-08-13T18:45:24.365Z,1.30
2018-08-13T18:47:52.049Z,1.40
2018-08-13T18:50:20.667Z,1.40
2018-08-13T18:52:48.387Z,1.43
2018-08-13T18:55:18.052Z,1.47
2018-08-13T18:57:46.588Z,1.50
2018-08-13T19:00:17.143Z,1.30
2018-08-13T19:02:44.805Z,1.53
2018-08-13T19:05:13.829Z,1.60
2018-08-13T19:07:42.130Z,1.50
2018-08-13T19:10:11.758Z,1.93
2018-08-13T19:12:39.467Z,1.90
2018-08-13T19:15:09.214Z,2.53
2018-08-13T19:17:36.863Z,1.93
2018-08-13T19:20:06.103Z,2.50
2018-08-13T19:22:33.811Z,3.20
2018-08-13T19:25:01.775Z,3.87
2018-08-13T19:27:29.521Z,2.80
2018-08-13T19:29:58.403Z,3.23
2018-08-13T19:32:26.117Z,2.33
2018-08-13T19:34:54.213Z,3.10
2018-08-13T19:37:21.951Z,2.63
2018-08-13T19:39:49.685Z,2.80
2018-08-13T19:42:17.517Z,3.17
2018-08-13T19:44:46.064Z,3.70
2018-08-13T19:47:14.407Z,3.10
2018-08-13T19:49:42.322Z,3.20
2018-08-13T19:52:10.239Z,3.60
2018-08-13T19:54:38.077Z,3.83
2018-08-13T19:57:06.077Z,3.67
2018-08-13T19:59:33.847Z,2.70
2018-08-13T20:02:01.703Z,3.00
2018-08-13T20:04:29.645Z,2.63
2018-08-13T20:06:57.603Z,2.70
2018-08-13T20:09:25.513Z,3.20
2018-08-13T20:11:54.186Z,3.00
2018-08-13T20:14:23.121Z,3.67
2018-08-13T20:16:51.545Z,2.67
2018-08-13T20:19:19.415Z,3.30
2018-08-13T20:21:47.451Z,3.30
2018-08-13T20:24:15.408Z,3.10
2018-08-13T20:26:43.110Z,4.17
2018-08-13T20:29:12.092Z,3.20
2018-08-13T20:31:40.104Z,3.77
2018-08-13T20:34:08.212Z,3.20
2018-08-13T20:36:36.280Z,3.77
2018-08-13T20:39:08.065Z,3.07
2018-08-13T20:41:35.988Z,3.60
2018-08-13T20:44:04.171Z,3.90
2018-08-13T20:46:32.068Z,3.30
2018-08-13T20:48:59.932Z,4.23
2018-08-13T20:51:28.209Z,4.20
2018-08-13T20:53:56.357Z,5.10
2018-08-13T20:56:24.225Z,4.83
2018-08-13T20:58:51.914Z,5.17
2018-08-13T21:01:19.795Z,3.50
2018-08-13T21:03:47.885Z,4.50
2018-08-13T21:06:16.010Z,4.87
2018-08-13T21:08:43.706Z,4.50
2018-08-13T21:11:11.571Z,3.53
2018-08-13T21:13:39.563Z,4.73
2018-08-13T21:16:07.576Z,4.10
2018-08-13T21:18:35.317Z,6.03
2018-08-13T21:21:03.193Z,6.37
2018-08-13T21:23:31.045Z,6.40
2018-08-13T21:25:59.095Z,7.27
2018-08-13T21:28:27.916Z,7.13
2018-08-13T21:30:55.980Z,7.30
2018-08-13T21:33:26.066Z,7.70
2018-08-13T21:35:55.175Z,7.23
2018-08-13T21:38:23.111Z,8.67
2018-08-13T21:40:51.086Z,8.40
2018-08-13T21:43:18.899Z,10.17
2018-08-13T21:45:47.338Z,9.27
2018-08-13T21:48:15.198Z,7.93
2018-08-13T21:50:43.195Z,9.53
2018-08-13T21:53:10.994Z,12.10
2018-08-13T21:55:38.965Z,12.40
2018-08-13T21:58:06.745Z,11.80
2018-08-13T22:00:40.524Z,11.93
2018-08-13T22:03:09.460Z,12.70
2018-08-13T22:05:37.289Z,12.60
2018-08-13T22:08:05.266Z,13.20
2018-08-13T22:10:33.189Z,12.23
2018-08-13T22:13:00.970Z,13.67
2018-08-13T22:15:29.792Z,14.00
2018-08-13T22:18:00.184Z,14.87
2018-08-13T22:20:29.223Z,14.67
2018-08-13T22:22:58.158Z,15.83
2018-08-13T22:25:30.778Z,15.03
2018-08-13T22:27:58.954Z,17.60
2018-08-13T22:30:27.622Z,20.07
2018-08-13T22:32:55.868Z,15.97
2018-08-13T22:35:24.254Z,15.57
2018-08-13T22:37:52.447Z,15.57
2018-08-13T22:40:21.325Z,18.00
2018-08-13T22:42:49.083Z,18.27
2018-08-13T22:45:18.857Z,16.87
2018-08-13T22:47:46.831Z,16.53
2018-08-13T22:50:14.557Z,18.87
2018-08-13T22:52:42.520Z,17.60
2018-08-13T22:55:12.272Z,17.10
2018-08-13T22:57:40.044Z,16.20
2018-08-13T23:00:09.749Z,15.30
2018-08-13T23:02:37.807Z,15.03
2018-08-13T23:05:08.562Z,16.67
2018-08-13T23:07:36.838Z,15.87
2018-08-13T23:10:05.182Z,16.37
2018-08-13T23:12:33.241Z,16.60
2018-08-13T23:15:01.036Z,16.10
2018-08-13T23:17:28.837Z,19.90
2018-08-13T23:19:56.594Z,17.00
2018-08-13T23:22:52.153Z,18.20
2018-08-13T23:25:20.068Z,16.33
2018-08-13T23:27:48.869Z,16.20
2018-08-13T23:30:16.721Z,17.40
2018-08-13T23:32:46.045Z,16.00
2018-08-13T23:35:14.321Z,17.20
2018-08-13T23:37:42.034Z,16.47
2018-08-13T23:40:10.093Z,16.70
2018-08-13T23:42:37.959Z,17.80
2018-08-13T23:45:07.372Z,16.93
2018-08-13T23:47:35.093Z,16.67
2018-08-13T23:50:02.944Z,20.70
2018-08-13T23:52:30.565Z,20.87
2018-08-13T23:54:58.236Z,20.13
2018-08-13T23:57:26.092Z,18.33
2018-08-13T23:59:53.746Z,20.80
